sensor_id;sensor_type;location;lat;lon;timestamp;P1;durP1;ratioP1;P2;durP2;ratioP2
9938;SDS011;5008;50.656;7.188;2024-01-10T05:00:57;8.77;;;5.20;;
9938;SDS011;5008;50.656;7.188;2024-01-10T05:03:56;7.07;;;4.50;;
9938;SDS011;5008;50.656;7.188;2024-01-10T05:06:29;9.30;;;5.13;;
9938;SDS011;5008;50.656;7.188;2024-01-10T05:09:01;6.90;;;4.87;;
9938;SDS011;5008;50.656;7.188;2024-01-10T05:11:39;11.60;;;4.97;;
9938;SDS011;5008;50.656;7.188;2024-01-10T05:14:17;7.23;;;4.73;;
9938;SDS011;5008;50.656;7.188;2024-01-10T05:16:50;9.23;;;5.87;;
9938;SDS011;5008;50.656;7.188;2024-01-10T05:19:18;9.07;;;5.23;;
9938;SDS011;5008;50.656;7.188;2024-01-10T05:21:45;8.17;;;4.87;;
9938;SDS011;5008;50.656;7.188;2024-01-10T05:24:12;7.13;;;4.83;;
9938;SDS011;5008;50.656;7.188;2024-01-10T05:26:39;9.67;;;5.40;;
9938;SDS011;5008;50.656;7.188;2024-01-10T05:29:05;10.40;;;5.60;;
9938;SDS011;5008;50.656;7.188;2024-01-10T05:31:33;9.73;;;5.77;;
9938;SDS011;5008;50.656;7.188;2024-01-10T05:34:01;9.67;;;6.33;;
9938;SDS011;5008;50.656;7.188;2024-01-10T05:36:28;9.10;;;5.83;;
9938;SDS011;5008;50.656;7.188;2024-01-10T05:38:56;12.40;;;6.07;;
9938;SDS011;5008;50.656;7.188;2024-01-10T05:41:23;9.80;;;6.30;;
9938;SDS011;5008;50.656;7.188;2024-01-10T05:43:51;10.10;;;5.90;;
9938;SDS011;5008;50.656;7.188;2024-01-10T05:46:17;9.70;;;5.23;;
9938;SDS011;5008;50.656;7.188;2024-01-10T05:48:45;9.57;;;4.63;;
9938;SDS011;5008;50.656;7.188;2024-01-10T05:51:14;8.93;;;5.47;;
9938;SDS011;5008;50.656;7.188;2024-01-10T05:53:42;7.83;;;5.37;;
9938;SDS011;5008;50.656;7.188;2024-01-10T05:56:09;9.70;;;5.20;;
9938;SDS011;5008;50.656;7.188;2024-01-10T05:58:37;12.73;;;6.33;;
9938;SDS011;5008;50.656;7.188;2024-01-10T06:01:05;9.27;;;5.63;;
9938;SDS011;5008;50.656;7.188;2024-01-10T06:03:35;9.17;;;5.73;;
9938;SDS011;5008;50.656;7.188;2024-01-10T06:06:02;11.13;;;6.50;;
9938;SDS011;5008;50.656;7.188;2024-01-10T06:08:30;8.77;;;6.30;;
9938;SDS011;5008;50.656;7.188;2024-01-10T06:10:57;12.07;;;6.20;;
9938;SDS011;5008;50.656;7.188;2024-01-10T06:13:24;13.17;;;6.63;;
9938;SDS011;5008;50.656;7.188;2024-01-10T06:15:51;12.83;;;5.93;;
9938;SDS011;5008;50.656;7.188;2024-01-10T06:18:18;15.23;;;6.47;;
9938;SDS011;5008;50.656;7.188;2024-01-10T06:20:44;9.37;;;5.90;;
9938;SDS011;5008;50.656;7.188;2024-01-10T06:23:11;11.47;;;6.97;;
9938;SDS011;5008;50.656;7.188;2024-01-10T06:25:39;10.60;;;6.67;;
9938;SDS011;5008;50.656;7.188;2024-01-10T06:28:06;12.50;;;7.13;;
9938;SDS011;5008;50.656;7.188;2024-01-10T06:30:33;11.27;;;6.90;;
9938;SDS011;5008;50.656;7.188;2024-01-10T06:33:00;11.93;;;6.23;;
9938;SDS011;5008;50.656;7.188;2024-01-10T06:35:27;9.93;;;6.80;;
9938;SDS011;5008;50.656;7.188;2024-01-10T06:37:54;10.20;;;6.30;;
9938;SDS011;5008;50.656;7.188;2024-01-10T06:40:21;9.53;;;6.67;;
9938;SDS011;5008;50.656;7.188;2024-01-10T06:42:49;11.50;;;6.50;;
9938;SDS011;5008;50.656;7.188;2024-01-10T06:45:16;10.80;;;6.10;;
9938;SDS011;5008;50.656;7.188;2024-01-10T06:47:45;11.77;;;6.63;;
9938;SDS011;5008;50.656;7.188;2024-01-10T06:50:11;11.77;;;6.27;;
9938;SDS011;5008;50.656;7.188;2024-01-10T06:52:38;11.37;;;6.70;;
9938;SDS011;5008;50.656;7.188;2024-01-10T06:55:06;10.53;;;6.40;;
9938;SDS011;5008;50.656;7.188;2024-01-10T06:57:34;13.70;;;6.90;;
9938;SDS011;5008;50.656;7.188;2024-01-10T07:00:02;9.97;;;6.90;;
9938;SDS011;5008;50.656;7.188;2024-01-10T07:02:32;10.63;;;6.63;;
9938;SDS011;5008;50.656;7.188;2024-01-10T07:05:00;9.77;;;6.27;;
9938;SDS011;5008;50.656;7.188;2024-01-10T07:07:27;12.47;;;6.43;;
9938;SDS011;5008;50.656;7.188;2024-01-10T07:09:54;10.73;;;6.37;;
9938;SDS011;5008;50.656;7.188;2024-01-10T07:12:21;8.97;;;5.97;;
9938;SDS011;5008;50.656;7.188;2024-01-10T07:14:48;10.13;;;6.93;;
9938;SDS011;5008;50.656;7.188;2024-01-10T07:17:16;9.90;;;6.17;;
9938;SDS011;5008;50.656;7.188;2024-01-10T07:19:43;10.37;;;6.63;;
9938;SDS011;5008;50.656;7.188;2024-01-10T07:22:11;11.17;;;7.57;;
9938;SDS011;5008;50.656;7.188;2024-01-10T07:24:37;12.83;;;7.87;;
9938;SDS011;5008;50.656;7.188;2024-01-10T07:27:04;11.80;;;6.17;;
9938;SDS011;5008;50.656;7.188;2024-01-10T07:29:31;9.73;;;6.87;;
9938;SDS011;5008;50.656;7.188;2024-01-10T07:31:58;10.93;;;6.40;;
9938;SDS011;5008;50.656;7.188;2024-01-10T07:34:26;10.50;;;6.17;;
9938;SDS011;5008;50.656;7.188;2024-01-10T07:36:53;10.57;;;7.43;;
9938;SDS011;5008;50.656;7.188;2024-01-10T07:39:20;13.00;;;7.13;;
9938;SDS011;5008;50.656;7.188;2024-01-10T07:41:46;14.77;;;7.43;;
9938;SDS011;5008;50.656;7.188;2024-01-10T07:44:15;12.20;;;6.67;;
9938;SDS011;5008;50.656;7.188;2024-01-10T07:46:41;14.83;;;8.30;;
9938;SDS011;5008;50.656;7.188;2024-01-10T07:49:08;13.23;;;8.07;;
9938;SDS011;5008;50.656;7.188;2024-01-10T07:51:36;12.57;;;7.37;;
9938;SDS011;5008;50.656;7.188;2024-01-10T07:54:03;12.20;;;7.80;;
9938;SDS011;5008;50.656;7.188;2024-01-10T07:56:30;12.07;;;8.43;;
9938;SDS011;5008;50.656;7.188;2024-01-10T07:58:55;17.40;;;8.70;;
9938;SDS011;5008;50.656;7.188;2024-01-10T08:01:22;14.77;;;9.03;;
9938;SDS011;5008;50.656;7.188;2024-01-10T08:03:49;14.70;;;8.53;;
9938;SDS011;5008;50.656;7.188;2024-01-10T08:06:17;12.73;;;8.00;;
9938;SDS011;5008;50.656;7.188;2024-01-10T08:08:45;16.37;;;8.80;;
9938;SDS011;5008;50.656;7.188;2024-01-10T08:11:12;11.40;;;7.63;;
9938;SDS011;5008;50.656;7.188;2024-01-10T08:13:39;12.27;;;8.60;;
9938;SDS011;5008;50.656;7.188;2024-01-10T08:16:06;14.43;;;8.37;;
9938;SDS011;5008;50.656;7.188;2024-01-10T08:18:33;13.80;;;8.43;;
9938;SDS011;5008;50.656;7.188;2024-01-10T08:21:00;14.80;;;8.83;;
9938;SDS011;5008;50.656;7.188;2024-01-10T08:23:29;15.57;;;9.30;;
9938;SDS011;5008;50.656;7.188;2024-01-10T08:25:57;15.70;;;9.60;;
9938;SDS011;5008;50.656;7.188;2024-01-10T08:28:24;16.60;;;9.30;;
9938;SDS011;5008;50.656;7.188;2024-01-10T08:30:51;13.83;;;9.03;;
9938;SDS011;5008;50.656;7.188;2024-01-10T08:33:18;15.27;;;9.17;;
9938;SDS011;5008;50.656;7.188;2024-01-10T08:35:45;14.43;;;9.20;;
9938;SDS011;5008;50.656;7.188;2024-01-10T08:38:12;14.40;;;8.97;;
9938;SDS011;5008;50.656;7.188;2024-01-10T08:40:38;16.50;;;9.40;;
9938;SDS011;5008;50.656;7.188;2024-01-10T08:43:07;16.73;;;9.97;;
9938;SDS011;5008;50.656;7.188;2024-01-10T08:45:33;17.23;;;10.20;;
9938;SDS011;5008;50.656;7.188;2024-01-10T08:48:00;15.27;;;9.40;;
9938;SDS011;5008;50.656;7.188;2024-01-10T08:50:27;15.47;;;9.60;;
9938;SDS011;5008;50.656;7.188;2024-01-10T08:52:54;15.10;;;9.13;;
9938;SDS011;5008;50.656;7.188;2024-01-10T08:55:21;16.03;;;8.33;;
9938;SDS011;5008;50.656;7.188;2024-01-10T08:57:47;14.90;;;8.87;;
9938;SDS011;5008;50.656;7.188;2024-01-10T09:00:16;13.80;;;9.00;;
9938;SDS011;5008;50.656;7.188;2024-01-10T09:02:43;15.00;;;8.67;;
9938;SDS011;5008;50.656;7.188;2024-01-10T09:05:10;15.40;;;8.37;;
9938;SDS011;5008;50.656;7.188;2024-01-10T09:07:36;13.47;;;7.70;;
9938;SDS011;5008;50.656;7.188;2024-01-10T09:10:04;10.47;;;8.17;;
9938;SDS011;5008;50.656;7.188;2024-01-10T09:12:32;13.67;;;7.57;;
9938;SDS011;5008;50.656;7.188;2024-01-10T09:14:59;13.63;;;8.07;;
9938;SDS011;5008;50.656;7.188;2024-01-10T09:17:27;12.93;;;7.93;;
9938;SDS011;5008;50.656;7.188;2024-01-10T09:19:54;12.50;;;7.93;;
9938;SDS011;5008;50.656;7.188;2024-01-10T09:22:21;12.97;;;7.93;;
9938;SDS011;5008;50.656;7.188;2024-01-10T09:24:48;15.47;;;9.07;;
9938;SDS011;5008;50.656;7.188;2024-01-10T09:27:14;13.23;;;8.23;;
9938;SDS011;5008;50.656;7.188;2024-01-10T09:29:41;12.97;;;7.93;;
9938;SDS011;5008;50.656;7.188;2024-01-10T09:32:08;11.67;;;8.53;;
9938;SDS011;5008;50.656;7.188;2024-01-10T09:34:37;15.73;;;8.80;;
9938;SDS011;5008;50.656;7.188;2024-01-10T09:37:04;14.27;;;8.77;;
9938;SDS011;5008;50.656;7.188;2024-01-10T09:39:31;10.80;;;7.87;;
9938;SDS011;5008;50.656;7.188;2024-01-10T09:41:57;14.17;;;9.23;;
9938;SDS011;5008;50.656;7.188;2024-01-10T09:44:24;13.87;;;8.57;;
9938;SDS011;5008;50.656;7.188;2024-01-10T09:46:51;14.83;;;8.67;;
9938;SDS011;5008;50.656;7.188;2024-01-10T09:49:20;12.73;;;8.73;;
9938;SDS011;5008;50.656;7.188;2024-01-10T09:51:49;12.23;;;9.10;;
9938;SDS011;5008;50.656;7.188;2024-01-10T09:54:16;12.10;;;9.13;;
9938;SDS011;5008;50.656;7.188;2024-01-10T09:56:45;16.23;;;9.93;;
9938;SDS011;5008;50.656;7.188;2024-01-10T09:59:12;14.37;;;9.23;;
9938;SDS011;5008;50.656;7.188;2024-01-10T10:01:39;15.67;;;9.30;;
9938;SDS011;5008;50.656;7.188;2024-01-10T10:04:07;13.47;;;9.07;;
9938;SDS011;5008;50.656;7.188;2024-01-10T10:06:37;13.83;;;9.30;;
9938;SDS011;5008;50.656;7.188;2024-01-10T10:09:05;15.37;;;10.30;;
9938;SDS011;5008;50.656;7.188;2024-01-10T10:11:33;15.83;;;9.53;;
9938;SDS011;5008;50.656;7.188;2024-01-10T10:14:13;15.80;;;9.37;;
9938;SDS011;5008;50.656;7.188;2024-01-10T10:16:40;14.87;;;9.50;;
9938;SDS011;5008;50.656;7.188;2024-01-10T10:19:07;15.20;;;9.67;;
9938;SDS011;5008;50.656;7.188;2024-01-10T10:21:36;14.77;;;10.10;;
9938;SDS011;5008;50.656;7.188;2024-01-10T10:24:03;14.30;;;9.70;;
9938;SDS011;5008;50.656;7.188;2024-01-10T10:26:32;17.23;;;9.97;;
9938;SDS011;5008;50.656;7.188;2024-01-10T10:29:00;19.10;;;10.30;;
9938;SDS011;5008;50.656;7.188;2024-01-10T10:31:27;14.67;;;9.90;;
9938;SDS011;5008;50.656;7.188;2024-01-10T10:33:54;14.17;;;9.93;;
9938;SDS011;5008;50.656;7.188;2024-01-10T10:36:22;16.67;;;9.50;;
9938;SDS011;5008;50.656;7.188;2024-01-10T10:38:49;14.93;;;10.23;;
9938;SDS011;5008;50.656;7.188;2024-01-10T10:41:17;17.30;;;10.50;;
9938;SDS011;5008;50.656;7.188;2024-01-10T10:43:45;13.27;;;9.50;;
9938;SDS011;5008;50.656;7.188;2024-01-10T10:46:13;18.70;;;10.50;;
9938;SDS011;5008;50.656;7.188;2024-01-10T10:48:40;21.77;;;10.17;;
9938;SDS011;5008;50.656;7.188;2024-01-10T10:51:08;16.90;;;10.80;;
9938;SDS011;5008;50.656;7.188;2024-01-10T10:53:36;17.17;;;11.03;;
9938;SDS011;5008;50.656;7.188;2024-01-10T10:56:05;17.33;;;10.17;;
9938;SDS011;5008;50.656;7.188;2024-01-10T10:58:35;17.53;;;11.17;;
9938;SDS011;5008;50.656;7.188;2024-01-10T11:01:04;17.53;;;10.43;;
9938;SDS011;5008;50.656;7.188;2024-01-10T11:03:34;18.93;;;10.73;;
9938;SDS011;5008;50.656;7.188;2024-01-10T11:06:02;16.30;;;11.10;;
9938;SDS011;5008;50.656;7.188;2024-01-10T11:08:30;16.33;;;10.53;;
9938;SDS011;5008;50.656;7.188;2024-01-10T11:11:01;17.70;;;11.20;;
9938;SDS011;5008;50.656;7.188;2024-01-10T11:13:36;19.50;;;11.50;;
9938;SDS011;5008;50.656;7.188;2024-01-10T11:18:54;18.43;;;10.30;;
9938;SDS011;5008;50.656;7.188;2024-01-10T11:21:46;16.43;;;10.10;;
9938;SDS011;5008;50.656;7.188;2024-01-10T11:24:23;16.37;;;10.33;;
9938;SDS011;5008;50.656;7.188;2024-01-10T11:27:06;17.63;;;10.97;;
9938;SDS011;5008;50.656;7.188;2024-01-10T11:29:37;20.77;;;12.17;;
9938;SDS011;5008;50.656;7.188;2024-01-10T11:32:05;19.47;;;12.10;;
9938;SDS011;5008;50.656;7.188;2024-01-10T11:34:34;16.67;;;10.53;;
9938;SDS011;5008;50.656;7.188;2024-01-10T11:37:10;14.07;;;10.40;;
9938;SDS011;5008;50.656;7.188;2024-01-10T11:39:40;16.67;;;10.77;;
9938;SDS011;5008;50.656;7.188;2024-01-10T11:42:07;17.03;;;11.13;;
9938;SDS011;5008;50.656;7.188;2024-01-10T11:44:35;18.53;;;10.93;;
9938;SDS011;5008;50.656;7.188;2024-01-10T11:47:14;19.43;;;11.50;;
9938;SDS011;5008;50.656;7.188;2024-01-10T11:49:54;16.97;;;10.53;;
9938;SDS011;5008;50.656;7.188;2024-01-10T11:52:22;18.67;;;11.47;;
9938;SDS011;5008;50.656;7.188;2024-01-10T11:54:49;17.57;;;12.20;;
9938;SDS011;5008;50.656;7.188;2024-01-10T11:57:19;18.53;;;11.37;;
9938;SDS011;5008;50.656;7.188;2024-01-10T11:59:49;41.63;;;26.50;;
9938;SDS011;5008;50.656;7.188;2024-01-10T12:02:19;27.13;;;16.83;;
9938;SDS011;5008;50.656;7.188;2024-01-10T12:04:49;22.50;;;13.33;;
9938;SDS011;5008;50.656;7.188;2024-01-10T12:07:16;20.10;;;12.83;;
9938;SDS011;5008;50.656;7.188;2024-01-10T12:09:52;22.07;;;14.67;;
9938;SDS011;5008;50.656;7.188;2024-01-10T12:12:20;18.67;;;12.07;;
9938;SDS011;5008;50.656;7.188;2024-01-10T12:14:50;19.37;;;13.07;;
9938;SDS011;5008;50.656;7.188;2024-01-10T12:17:19;22.93;;;13.47;;
9938;SDS011;5008;50.656;7.188;2024-01-10T12:19:50;23.07;;;14.17;;
9938;SDS011;5008;50.656;7.188;2024-01-10T12:22:18;18.27;;;12.30;;
9938;SDS011;5008;50.656;7.188;2024-01-10T12:25:05;20.77;;;13.53;;
9938;SDS011;5008;50.656;7.188;2024-01-10T12:27:45;18.20;;;12.70;;
9938;SDS011;5008;50.656;7.188;2024-01-10T12:30:38;19.47;;;13.17;;
9938;SDS011;5008;50.656;7.188;2024-01-10T12:33:06;21.03;;;12.73;;
9938;SDS011;5008;50.656;7.188;2024-01-10T12:35:35;17.03;;;12.00;;
9938;SDS011;5008;50.656;7.188;2024-01-10T12:38:02;19.80;;;12.97;;
9938;SDS011;5008;50.656;7.188;2024-01-10T12:40:31;18.77;;;12.60;;
9938;SDS011;5008;50.656;7.188;2024-01-10T12:43:02;18.93;;;12.17;;
9938;SDS011;5008;50.656;7.188;2024-01-10T12:45:29;21.53;;;13.27;;
9938;SDS011;5008;50.656;7.188;2024-01-10T12:47:58;21.40;;;14.47;;
9938;SDS011;5008;50.656;7.188;2024-01-10T12:53:21;21.20;;;13.37;;
9938;SDS011;5008;50.656;7.188;2024-01-10T12:55:48;22.70;;;13.23;;
9938;SDS011;5008;50.656;7.188;2024-01-10T12:58:17;19.53;;;12.13;;
9938;SDS011;5008;50.656;7.188;2024-01-10T13:00:44;24.40;;;12.73;;
9938;SDS011;5008;50.656;7.188;2024-01-10T13:03:13;17.00;;;11.80;;
9938;SDS011;5008;50.656;7.188;2024-01-10T13:05:39;17.40;;;11.17;;
9938;SDS011;5008;50.656;7.188;2024-01-10T13:08:18;17.20;;;10.80;;
9938;SDS011;5008;50.656;7.188;2024-01-10T13:10:46;16.63;;;11.13;;
9938;SDS011;5008;50.656;7.188;2024-01-10T13:13:14;18.10;;;11.40;;
9938;SDS011;5008;50.656;7.188;2024-01-10T13:15:43;21.13;;;12.83;;
9938;SDS011;5008;50.656;7.188;2024-01-10T13:18:13;21.27;;;13.97;;
9938;SDS011;5008;50.656;7.188;2024-01-10T13:20:40;21.20;;;13.77;;
9938;SDS011;5008;50.656;7.188;2024-01-10T13:23:08;15.03;;;11.00;;
9938;SDS011;5008;50.656;7.188;2024-01-10T13:25:41;16.63;;;10.87;;
9938;SDS011;5008;50.656;7.188;2024-01-10T13:28:15;15.17;;;10.80;;
9938;SDS011;5008;50.656;7.188;2024-01-10T13:30:46;16.50;;;10.77;;
9938;SDS011;5008;50.656;7.188;2024-01-10T13:33:17;16.27;;;11.17;;
9938;SDS011;5008;50.656;7.188;2024-01-10T13:35:59;14.93;;;9.83;;
9938;SDS011;5008;50.656;7.188;2024-01-10T13:38:27;17.43;;;10.87;;
9938;SDS011;5008;50.656;7.188;2024-01-10T13:40:54;15.37;;;9.97;;
9938;SDS011;5008;50.656;7.188;2024-01-10T13:43:21;15.83;;;10.10;;
9938;SDS011;5008;50.656;7.188;2024-01-10T13:45:48;17.90;;;10.67;;
9938;SDS011;5008;50.656;7.188;2024-01-10T13:48:16;14.70;;;9.77;;
9938;SDS011;5008;50.656;7.188;2024-01-10T13:50:43;14.13;;;9.60;;
9938;SDS011;5008;50.656;7.188;2024-01-10T13:53:11;25.13;;;17.60;;
9938;SDS011;5008;50.656;7.188;2024-01-10T13:55:38;14.93;;;9.80;;
9938;SDS011;5008;50.656;7.188;2024-01-10T13:58:05;14.60;;;9.80;;
9938;SDS011;5008;50.656;7.188;2024-01-10T14:00:32;15.63;;;10.10;;
9938;SDS011;5008;50.656;7.188;2024-01-10T14:02:59;14.87;;;10.03;;
9938;SDS011;5008;50.656;7.188;2024-01-10T14:05:28;16.83;;;10.30;;
9938;SDS011;5008;50.656;7.188;2024-01-10T14:07:55;13.63;;;9.43;;
9938;SDS011;5008;50.656;7.188;2024-01-10T14:10:22;10.77;;;8.70;;
9938;SDS011;5008;50.656;7.188;2024-01-10T14:12:49;13.97;;;9.80;;
9938;SDS011;5008;50.656;7.188;2024-01-10T14:15:16;14.17;;;10.63;;
9938;SDS011;5008;50.656;7.188;2024-01-10T14:17:43;28.67;;;20.47;;
9938;SDS011;5008;50.656;7.188;2024-01-10T14:20:10;18.17;;;13.10;;
9938;SDS011;5008;50.656;7.188;2024-01-10T14:22:39;22.63;;;17.87;;
9938;SDS011;5008;50.656;7.188;2024-01-10T14:25:08;15.33;;;11.70;;
9938;SDS011;5008;50.656;7.188;2024-01-10T14:27:36;17.37;;;13.50;;
9938;SDS011;5008;50.656;7.188;2024-01-10T14:30:04;17.93;;;11.70;;
9938;SDS011;5008;50.656;7.188;2024-01-10T14:32:33;16.33;;;12.63;;
9938;SDS011;5008;50.656;7.188;2024-01-10T14:35:00;17.77;;;12.30;;
9938;SDS011;5008;50.656;7.188;2024-01-10T14:37:27;19.93;;;13.00;;
9938;SDS011;5008;50.656;7.188;2024-01-10T14:39:56;16.20;;;12.37;;
9938;SDS011;5008;50.656;7.188;2024-01-10T14:42:23;16.00;;;10.80;;
9938;SDS011;5008;50.656;7.188;2024-01-10T14:44:49;15.43;;;11.27;;
9938;SDS011;5008;50.656;7.188;2024-01-10T14:47:16;16.67;;;11.20;;
9938;SDS011;5008;50.656;7.188;2024-01-10T14:49:43;14.53;;;10.60;;
9938;SDS011;5008;50.656;7.188;2024-01-10T14:52:10;15.60;;;11.07;;
9938;SDS011;5008;50.656;7.188;2024-01-10T14:54:37;15.53;;;11.20;;
9938;SDS011;5008;50.656;7.188;2024-01-10T14:57:05;14.27;;;10.57;;
9938;SDS011;5008;50.656;7.188;2024-01-10T14:59:32;14.57;;;10.90;;
9938;SDS011;5008;50.656;7.188;2024-01-10T15:01:59;14.57;;;10.70;;
9938;SDS011;5008;50.656;7.188;2024-01-10T15:04:26;14.83;;;10.73;;
9938;SDS011;5008;50.656;7.188;2024-01-10T15:06:55;15.40;;;11.13;;
9938;SDS011;5008;50.656;7.188;2024-01-10T15:09:22;14.80;;;11.00;;
9938;SDS011;5008;50.656;7.188;2024-01-10T15:11:49;17.47;;;12.93;;
9938;SDS011;5008;50.656;7.188;2024-01-10T15:14:17;13.77;;;9.03;;
9938;SDS011;5008;50.656;7.188;2024-01-10T15:16:45;15.63;;;9.90;;
9938;SDS011;5008;50.656;7.188;2024-01-10T15:19:12;16.07;;;10.37;;
9938;SDS011;5008;50.656;7.188;2024-01-10T15:21:39;15.37;;;9.83;;
9938;SDS011;5008;50.656;7.188;2024-01-10T15:24:05;13.13;;;8.87;;
9938;SDS011;5008;50.656;7.188;2024-01-10T15:26:32;14.47;;;8.97;;
9938;SDS011;5008;50.656;7.188;2024-01-10T15:28:59;13.17;;;8.70;;
9938;SDS011;5008;50.656;7.188;2024-01-10T15:31:28;16.07;;;10.30;;
9938;SDS011;5008;50.656;7.188;2024-01-10T15:33:56;14.43;;;9.50;;
9938;SDS011;5008;50.656;7.188;2024-01-10T15:36:23;15.73;;;9.30;;
9938;SDS011;5008;50.656;7.188;2024-01-10T15:38:50;15.10;;;9.63;;
9938;SDS011;5008;50.656;7.188;2024-01-10T15:41:17;14.80;;;10.17;;
9938;SDS011;5008;50.656;7.188;2024-01-10T15:43:44;17.43;;;9.90;;
9938;SDS011;5008;50.656;7.188;2024-01-10T15:46:17;12.33;;;9.30;;
9938;SDS011;5008;50.656;7.188;2024-01-10T15:48:45;13.13;;;9.33;;
9938;SDS011;5008;50.656;7.188;2024-01-10T15:51:12;15.70;;;9.47;;
9938;SDS011;5008;50.656;7.188;2024-01-10T15:53:39;12.63;;;8.83;;
9938;SDS011;5008;50.656;7.188;2024-01-10T15:58:40;15.03;;;9.30;;
9938;SDS011;5008;50.656;7.188;2024-01-10T16:01:06;13.47;;;9.87;;
9938;SDS011;5008;50.656;7.188;2024-01-10T16:03:33;14.07;;;9.43;;
9938;SDS011;5008;50.656;7.188;2024-01-10T16:06:02;16.80;;;11.50;;
9938;SDS011;5008;50.656;7.188;2024-01-10T16:08:29;17.70;;;11.63;;
9938;SDS011;5008;50.656;7.188;2024-01-10T16:10:56;15.80;;;10.33;;
9938;SDS011;5008;50.656;7.188;2024-01-10T16:13:23;24.53;;;18.00;;
9938;SDS011;5008;50.656;7.188;2024-01-10T16:15:52;22.70;;;16.43;;
9938;SDS011;5008;50.656;7.188;2024-01-10T16:18:20;22.07;;;15.43;;
9938;SDS011;5008;50.656;7.188;2024-01-10T16:20:47;18.53;;;12.90;;
9938;SDS011;5008;50.656;7.188;2024-01-10T16:23:15;11.57;;;8.97;;
9938;SDS011;5008;50.656;7.188;2024-01-10T16:25:42;14.87;;;9.00;;
9938;SDS011;5008;50.656;7.188;2024-01-10T16:28:09;14.97;;;10.63;;
9938;SDS011;5008;50.656;7.188;2024-01-10T16:30:36;16.37;;;9.80;;
9938;SDS011;5008;50.656;7.188;2024-01-10T16:33:03;15.83;;;10.00;;
9938;SDS011;5008;50.656;7.188;2024-01-10T16:35:30;14.13;;;9.20;;
9938;SDS011;5008;50.656;7.188;2024-01-10T16:37:57;15.53;;;9.37;;
9938;SDS011;5008;50.656;7.188;2024-01-10T16:40:25;15.57;;;10.30;;
9938;SDS011;5008;50.656;7.188;2024-01-10T16:42:52;17.10;;;11.37;;
9938;SDS011;5008;50.656;7.188;2024-01-10T16:45:19;16.40;;;10.30;;
9938;SDS011;5008;50.656;7.188;2024-01-10T16:47:46;17.07;;;10.23;;
9938;SDS011;5008;50.656;7.188;2024-01-10T16:50:13;13.27;;;9.77;;
9938;SDS011;5008;50.656;7.188;2024-01-10T16:52:40;14.77;;;9.93;;
9938;SDS011;5008;50.656;7.188;2024-01-10T16:55:06;16.70;;;11.10;;
9938;SDS011;5008;50.656;7.188;2024-01-10T16:57:35;19.60;;;13.67;;
9938;SDS011;5008;50.656;7.188;2024-01-10T17:00:02;20.80;;;14.67;;
9938;SDS011;5008;50.656;7.188;2024-01-10T17:02:29;22.67;;;15.23;;
9938;SDS011;5008;50.656;7.188;2024-01-10T17:04:56;22.87;;;15.13;;
9938;SDS011;5008;50.656;7.188;2024-01-10T17:07:23;26.23;;;15.87;;
9938;SDS011;5008;50.656;7.188;2024-01-10T17:09:50;25.03;;;14.50;;
9938;SDS011;5008;50.656;7.188;2024-01-10T17:12:17;21.87;;;15.53;;
9938;SDS011;5008;50.656;7.188;2024-01-10T17:14:45;23.80;;;14.93;;
9938;SDS011;5008;50.656;7.188;2024-01-10T17:17:12;19.73;;;14.07;;
9938;SDS011;5008;50.656;7.188;2024-01-10T17:19:39;20.50;;;13.07;;
9938;SDS011;5008;50.656;7.188;2024-01-10T17:22:06;20.97;;;13.17;;
9938;SDS011;5008;50.656;7.188;2024-01-10T17:24:32;23.53;;;13.10;;
9938;SDS011;5008;50.656;7.188;2024-01-10T17:26:59;23.33;;;13.77;;
9938;SDS011;5008;50.656;7.188;2024-01-10T17:29:26;22.03;;;14.33;;
9938;SDS011;5008;50.656;7.188;2024-01-10T17:31:54;23.23;;;14.57;;
9938;SDS011;5008;50.656;7.188;2024-01-10T17:34:21;25.57;;;15.10;;
9938;SDS011;5008;50.656;7.188;2024-01-10T17:36:47;21.63;;;13.80;;
9938;SDS011;5008;50.656;7.188;2024-01-10T17:39:14;21.77;;;13.73;;
9938;SDS011;5008;50.656;7.188;2024-01-10T17:41:41;19.60;;;12.97;;
9938;SDS011;5008;50.656;7.188;2024-01-10T17:44:08;22.03;;;14.30;;
9938;SDS011;5008;50.656;7.188;2024-01-10T17:46:35;22.63;;;14.10;;
9938;SDS011;5008;50.656;7.188;2024-01-10T17:49:03;24.17;;;14.77;;
9938;SDS011;5008;50.656;7.188;2024-01-10T17:51:30;24.47;;;14.10;;
9938;SDS011;5008;50.656;7.188;2024-01-10T17:53:56;19.37;;;13.37;;
9938;SDS011;5008;50.656;7.188;2024-01-10T17:56:23;23.80;;;13.87;;
9938;SDS011;5008;50.656;7.188;2024-01-10T17:58:50;23.70;;;14.70;;
9938;SDS011;5008;50.656;7.188;2024-01-10T18:01:17;31.33;;;15.80;;
9938;SDS011;5008;50.656;7.188;2024-01-10T18:03:44;36.50;;;20.53;;
9938;SDS011;5008;50.656;7.188;2024-01-10T18:06:12;31.70;;;18.87;;
9938;SDS011;5008;50.656;7.188;2024-01-10T18:08:39;38.03;;;20.23;;
9938;SDS011;5008;50.656;7.188;2024-01-10T18:11:07;33.57;;;19.00;;
9938;SDS011;5008;50.656;7.188;2024-01-10T18:13:34;32.17;;;18.23;;
9938;SDS011;5008;50.656;7.188;2024-01-10T18:16:01;26.30;;;16.37;;
9938;SDS011;5008;50.656;7.188;2024-01-10T18:18:28;23.67;;;14.90;;
9938;SDS011;5008;50.656;7.188;2024-01-10T18:20:57;24.63;;;15.30;;
9938;SDS011;5008;50.656;7.188;2024-01-10T18:23:25;25.07;;;15.67;;
9938;SDS011;5008;50.656;7.188;2024-01-10T18:25:52;23.17;;;14.87;;
9938;SDS011;5008;50.656;7.188;2024-01-10T18:28:19;26.67;;;15.00;;
9938;SDS011;5008;50.656;7.188;2024-01-10T18:30:46;25.57;;;15.60;;
9938;SDS011;5008;50.656;7.188;2024-01-10T18:33:13;24.63;;;15.30;;
9938;SDS011;5008;50.656;7.188;2024-01-10T18:35:41;26.40;;;14.63;;
9938;SDS011;5008;50.656;7.188;2024-01-10T18:38:07;21.97;;;14.50;;
9938;SDS011;5008;50.656;7.188;2024-01-10T18:40:36;21.00;;;13.47;;
9938;SDS011;5008;50.656;7.188;2024-01-10T18:43:04;24.50;;;14.53;;
9938;SDS011;5008;50.656;7.188;2024-01-10T18:45:31;21.57;;;14.73;;
9938;SDS011;5008;50.656;7.188;2024-01-10T18:47:58;23.50;;;15.77;;
9938;SDS011;5008;50.656;7.188;2024-01-10T18:50:24;21.70;;;14.77;;
9938;SDS011;5008;50.656;7.188;2024-01-10T18:52:51;21.20;;;13.97;;
9938;SDS011;5008;50.656;7.188;2024-01-10T18:55:20;27.00;;;15.43;;
9938;SDS011;5008;50.656;7.188;2024-01-10T18:57:48;23.43;;;13.93;;
9938;SDS011;5008;50.656;7.188;2024-01-10T19:00:17;20.77;;;13.67;;
9938;SDS011;5008;50.656;7.188;2024-01-10T19:02:48;20.73;;;13.03;;
9938;SDS011;5008;50.656;7.188;2024-01-10T19:05:15;21.20;;;13.00;;
9938;SDS011;5008;50.656;7.188;2024-01-10T19:07:42;22.23;;;14.83;;
9938;SDS011;5008;50.656;7.188;2024-01-10T19:10:09;25.10;;;14.93;;
9938;SDS011;5008;50.656;7.188;2024-01-10T19:12:36;25.80;;;16.00;;
9938;SDS011;5008;50.656;7.188;2024-01-10T19:15:05;25.63;;;15.20;;
9938;SDS011;5008;50.656;7.188;2024-01-10T19:17:32;21.73;;;14.60;;
9938;SDS011;5008;50.656;7.188;2024-01-10T19:19:59;28.73;;;16.20;;
9938;SDS011;5008;50.656;7.188;2024-01-10T19:22:26;22.40;;;14.53;;
9938;SDS011;5008;50.656;7.188;2024-01-10T19:24:53;25.03;;;14.03;;
9938;SDS011;5008;50.656;7.188;2024-01-10T19:27:20;26.00;;;14.63;;
9938;SDS011;5008;50.656;7.188;2024-01-10T19:29:47;25.50;;;15.17;;
9938;SDS011;5008;50.656;7.188;2024-01-10T19:32:15;22.73;;;14.47;;
9938;SDS011;5008;50.656;7.188;2024-01-10T19:34:42;25.30;;;15.30;;
9938;SDS011;5008;50.656;7.188;2024-01-10T19:37:08;24.03;;;14.90;;
9938;SDS011;5008;50.656;7.188;2024-01-10T19:39:35;26.70;;;17.47;;
9938;SDS011;5008;50.656;7.188;2024-01-10T19:42:02;43.47;;;24.93;;
9938;SDS011;5008;50.656;7.188;2024-01-10T19:44:29;40.03;;;22.27;;
9938;SDS011;5008;50.656;7.188;2024-01-10T19:46:56;36.57;;;20.83;;
9938;SDS011;5008;50.656;7.188;2024-01-10T19:49:24;37.97;;;22.90;;
9938;SDS011;5008;50.656;7.188;2024-01-10T19:51:51;39.23;;;21.73;;
9938;SDS011;5008;50.656;7.188;2024-01-10T19:54:18;35.67;;;21.87;;
9938;SDS011;5008;50.656;7.188;2024-01-10T19:56:45;33.87;;;20.83;;
9938;SDS011;5008;50.656;7.188;2024-01-10T19:59:11;32.53;;;19.90;;
9938;SDS011;5008;50.656;7.188;2024-01-10T20:01:38;34.73;;;19.40;;
9938;SDS011;5008;50.656;7.188;2024-01-10T20:04:05;25.73;;;17.80;;
9938;SDS011;5008;50.656;7.188;2024-01-10T20:06:33;28.40;;;17.30;;
9938;SDS011;5008;50.656;7.188;2024-01-10T20:09:00;30.20;;;17.70;;